createdAt,value
2023-05-10T00:01:56.649Z,99899.41
2023-05-10T00:12:02.473Z,99890.62
2023-05-10T00:22:08.331Z,99889.58
2023-05-10T00:32:15.073Z,99874.69
2023-05-10T00:42:21.116Z,99866.88
2023-05-10T00:52:27.349Z,99863.20
2023-05-10T01:02:33.089Z,99856.05
2023-05-10T01:12:41.408Z,99851.72
2023-05-10T01:23:06.552Z,99852.45
2023-05-10T01:33:19.176Z,99846.50
2023-05-10T01:43:28.641Z,99850.63
2023-05-10T01:53:35.590Z,99845.70
2023-05-10T02:03:43.514Z,99837.06
2023-05-10T02:13:51.312Z,99834.80
2023-05-10T02:23:59.143Z,99837.06
2023-05-10T02:34:06.222Z,99825.89
2023-05-10T02:44:12.728Z,99823.23
2023-05-10T02:54:23.032Z,99814.27
2023-05-10T03:04:28.795Z,99822.00
2023-05-10T03:14:47.580Z,99823.22
2023-05-10T03:24:55.920Z,99821.45
2023-05-10T03:35:01.506Z,99820.85
2023-05-10T03:45:09.177Z,99817.97
2023-05-10T03:55:13.284Z,99809.71
2023-05-10T04:05:19.169Z,99809.75
2023-05-10T04:15:25.170Z,99811.61
2023-05-10T04:25:31.183Z,99801.44
2023-05-10T04:35:36.918Z,99806.37
2023-05-10T04:45:42.739Z,99811.71
2023-05-10T04:55:49.164Z,99813.30
2023-05-10T05:05:54.858Z,99801.41
2023-05-10T05:16:02.456Z,99781.11
2023-05-10T05:26:08.232Z,99777.98
2023-05-10T05:36:14.012Z,99784.73
2023-05-10T05:46:19.735Z,99783.02
2023-05-10T05:56:26.141Z,99778.31
2023-05-10T06:06:33.225Z,99764.73
2023-05-10T06:16:39.010Z,99761.39
2023-05-10T06:26:44.678Z,99766.52
2023-05-10T06:36:50.562Z,99762.05
2023-05-10T06:46:56.935Z,99761.05
2023-05-10T06:57:08.845Z,99763.42
2023-05-10T07:07:18.873Z,99762.84
2023-05-10T07:17:24.730Z,99760.88
2023-05-10T07:27:30.672Z,99765.53
2023-05-10T07:37:37.075Z,99756.23
2023-05-10T07:47:42.745Z,99755.13
2023-05-10T07:57:48.827Z,99747.60
2023-05-10T08:07:54.873Z,99741.88
2023-05-10T08:18:00.663Z,99740.54
2023-05-10T08:28:06.539Z,99746.54
2023-05-10T08:38:13.845Z,99752.72
2023-05-10T08:48:20.646Z,99745.48
2023-05-10T08:58:27.586Z,99755.33
2023-05-10T09:08:33.629Z,99741.79
2023-05-10T09:18:39.418Z,99741.88
2023-05-10T09:28:57.118Z,99734.66
2023-05-10T09:39:03.093Z,99741.88
2023-05-10T09:49:09.247Z,99740.92
2023-05-10T09:59:15.703Z,99736.45
2023-05-10T10:09:21.742Z,99725.05
2023-05-10T10:19:27.614Z,99724.98
2023-05-10T10:29:41.481Z,99712.06
2023-05-10T10:39:50.652Z,99711.45
2023-05-10T10:50:07.128Z,99698.80
2023-05-10T11:00:33.441Z,99697.46
2023-05-10T11:10:39.847Z,99703.16
2023-05-10T11:20:47.912Z,99691.59
2023-05-10T11:30:54.555Z,99682.55
2023-05-10T11:41:00.365Z,99672.17
2023-05-10T11:51:06.254Z,99677.13
2023-05-10T12:01:12.889Z,99664.33
2023-05-10T12:11:18.750Z,99655.22
2023-05-10T12:21:25.203Z,99663.66
2023-05-10T12:31:30.990Z,99660.94
2023-05-10T12:41:36.937Z,99657.10
2023-05-10T12:51:42.694Z,99656.59
2023-05-10T13:01:48.364Z,99646.95
2023-05-10T13:11:55.326Z,99638.02
2023-05-10T13:22:01.204Z,99635.88
2023-05-10T13:32:07.980Z,99626.83
2023-05-10T13:42:13.856Z,99626.13
2023-05-10T13:52:19.876Z,99614.33
2023-05-10T14:02:28.705Z,99604.80
2023-05-10T14:12:35.284Z,99601.05
2023-05-10T14:22:41.511Z,99591.25
2023-05-10T14:32:47.194Z,99582.48
2023-05-10T14:42:54.370Z,99586.46
2023-05-10T14:53:36.733Z,99592.50
2023-05-10T15:03:43.199Z,99587.77
2023-05-10T15:13:50.847Z,99581.71
2023-05-10T15:23:56.601Z,99581.11
2023-05-10T15:34:02.659Z,99576.55
2023-05-10T15:44:08.351Z,99579.98
2023-05-10T15:54:14.269Z,99584.02
2023-05-10T16:04:20.981Z,99581.30
2023-05-10T16:14:26.857Z,99589.69
2023-05-10T16:24:32.893Z,99588.72
2023-05-10T16:34:39.729Z,99596.48
2023-05-10T16:44:45.427Z,99598.06
2023-05-10T16:54:51.398Z,99598.52
2023-05-10T17:04:57.364Z,99604.08
2023-05-10T17:15:02.984Z,99616.77
2023-05-10T17:25:11.321Z,99616.13
2023-05-10T17:35:17.359Z,99624.14
2023-05-10T17:45:23.930Z,99635.45
2023-05-10T17:55:30.842Z,99645.48
2023-05-10T18:05:39.757Z,99660.27
2023-05-10T18:15:45.972Z,99671.27
2023-05-10T18:25:52.001Z,99674.14
2023-05-10T18:35:57.754Z,99689.80
2023-05-10T18:46:03.473Z,99699.48
2023-05-10T18:56:09.996Z,99711.04
2023-05-10T19:06:15.619Z,99713.92
2023-05-10T19:16:23.446Z,99721.20
2023-05-10T19:26:29.542Z,99729.03
2023-05-10T19:36:36.046Z,99733.33
2023-05-10T19:46:41.991Z,99737.52
2023-05-10T19:56:47.972Z,99738.44
2023-05-10T20:06:53.763Z,99746.78
2023-05-10T20:16:59.664Z,99755.08
2023-05-10T20:27:05.705Z,99759.06
2023-05-10T20:37:11.345Z,99760.83
2023-05-10T20:47:18.456Z,99758.77
2023-05-10T20:57:24.234Z,99765.44
2023-05-10T21:07:32.386Z,99770.37
2023-05-10T21:17:38.125Z,99770.31
2023-05-10T21:27:43.798Z,99772.86
2023-05-10T21:37:49.510Z,99774.52
2023-05-10T21:47:55.808Z,99777.44
2023-05-10T21:58:01.475Z,99788.85
2023-05-10T22:08:08.161Z,99789.41
2023-05-10T22:18:13.851Z,99795.09
2023-05-10T22:28:19.639Z,99802.30
2023-05-10T22:38:25.659Z,99812.45
2023-05-10T22:48:32.961Z,99811.98
2023-05-10T22:58:38.776Z,99818.98
2023-05-10T23:08:44.668Z,99819.79
2023-05-10T23:18:50.575Z,99819.96
2023-05-10T23:28:56.317Z,99820.13
2023-05-10T23:39:01.946Z,99818.44
2023-05-10T23:49:07.792Z,99812.09
2023-05-10T23:59:13.488Z,99812.77
